sensor_id;sensor_type;location;lat;lon;timestamp;P1;durP1;ratioP1;P2;durP2;ratioP2
33268;SDS011;19640;50.944;5.260;2023-06-14T00:01:50;5.85;;;4.30;;
33268;SDS011;19640;50.944;5.260;2023-06-14T00:04:16;4.75;;;4.22;;
33268;SDS011;19640;50.944;5.260;2023-06-14T00:06:41;4.47;;;4.00;;
33268;SDS011;19640;50.944;5.260;2023-06-14T00:09:10;6.00;;;4.15;;
33268;SDS011;19640;50.944;5.260;2023-06-14T00:11:38;9.27;;;4.50;;
33268;SDS011;19640;50.944;5.260;2023-06-14T00:14:04;5.35;;;4.90;;
33268;SDS011;19640;50.944;5.260;2023-06-14T00:16:30;9.02;;;4.45;;
33268;SDS011;19640;50.944;5.260;2023-06-14T00:18:58;6.82;;;4.75;;
33268;SDS011;19640;50.944;5.260;2023-06-14T00:21:23;5.22;;;4.72;;
33268;SDS011;19640;50.944;5.260;2023-06-14T00:23:49;5.10;;;4.45;;
33268;SDS011;19640;50.944;5.260;2023-06-14T00:26:15;4.85;;;4.45;;
33268;SDS011;19640;50.944;5.260;2023-06-14T00:28:41;7.53;;;4.20;;
33268;SDS011;19640;50.944;5.260;2023-06-14T00:31:06;5.57;;;4.28;;
33268;SDS011;19640;50.944;5.260;2023-06-14T00:33:32;13.18;;;4.30;;
33268;SDS011;19640;50.944;5.260;2023-06-14T00:35:58;8.13;;;4.25;;
33268;SDS011;19640;50.944;5.260;2023-06-14T00:38:24;4.75;;;4.35;;
33268;SDS011;19640;50.944;5.260;2023-06-14T00:40:50;6.18;;;4.22;;
33268;SDS011;19640;50.944;5.260;2023-06-14T00:43:16;5.13;;;4.63;;
33268;SDS011;19640;50.944;5.260;2023-06-14T00:45:42;6.30;;;4.28;;
33268;SDS011;19640;50.944;5.260;2023-06-14T00:48:07;6.88;;;4.72;;
33268;SDS011;19640;50.944;5.260;2023-06-14T00:50:34;7.55;;;4.53;;
33268;SDS011;19640;50.944;5.260;2023-06-14T00:53:00;5.13;;;4.30;;
33268;SDS011;19640;50.944;5.260;2023-06-14T00:55:26;6.18;;;5.55;;
33268;SDS011;19640;50.944;5.260;2023-06-14T00:57:54;12.93;;;4.80;;
33268;SDS011;19640;50.944;5.260;2023-06-14T01:00:21;6.25;;;4.85;;
33268;SDS011;19640;50.944;5.260;2023-06-14T01:02:47;7.70;;;4.28;;
33268;SDS011;19640;50.944;5.260;2023-06-14T01:05:14;5.07;;;4.65;;
33268;SDS011;19640;50.944;5.260;2023-06-14T01:10:35;6.78;;;4.32;;
33268;SDS011;19640;50.944;5.260;2023-06-14T01:16:02;5.30;;;4.90;;
33268;SDS011;19640;50.944;5.260;2023-06-14T01:18:30;8.95;;;4.53;;
33268;SDS011;19640;50.944;5.260;2023-06-14T01:20:57;10.90;;;5.72;;
33268;SDS011;19640;50.944;5.260;2023-06-14T01:23:23;6.43;;;4.85;;
33268;SDS011;19640;50.944;5.260;2023-06-14T01:25:49;5.97;;;5.38;;
33268;SDS011;19640;50.944;5.260;2023-06-14T01:28:19;10.85;;;5.15;;
33268;SDS011;19640;50.944;5.260;2023-06-14T01:30:54;9.15;;;5.45;;
33268;SDS011;19640;50.944;5.260;2023-06-14T01:33:21;5.47;;;4.97;;
33268;SDS011;19640;50.944;5.260;2023-06-14T01:35:50;5.85;;;5.32;;
33268;SDS011;19640;50.944;5.260;2023-06-14T01:38:20;6.45;;;5.05;;
33268;SDS011;19640;50.944;5.260;2023-06-14T01:40:48;5.13;;;4.63;;
33268;SDS011;19640;50.944;5.260;2023-06-14T01:43:16;6.55;;;5.05;;
33268;SDS011;19640;50.944;5.260;2023-06-14T01:45:43;6.03;;;5.15;;
33268;SDS011;19640;50.944;5.260;2023-06-14T01:48:12;5.10;;;4.60;;
33268;SDS011;19640;50.944;5.260;2023-06-14T01:50:38;6.30;;;5.05;;
33268;SDS011;19640;50.944;5.260;2023-06-14T01:53:07;5.65;;;4.95;;
33268;SDS011;19640;50.944;5.260;2023-06-14T01:55:34;6.90;;;5.32;;
33268;SDS011;19640;50.944;5.260;2023-06-14T01:58:02;8.23;;;5.35;;
33268;SDS011;19640;50.944;5.260;2023-06-14T02:00:30;8.02;;;5.22;;
33268;SDS011;19640;50.944;5.260;2023-06-14T02:02:55;6.47;;;5.88;;
33268;SDS011;19640;50.944;5.260;2023-06-14T02:05:22;5.95;;;4.88;;
33268;SDS011;19640;50.944;5.260;2023-06-14T02:07:47;6.03;;;5.25;;
33268;SDS011;19640;50.944;5.260;2023-06-14T02:10:13;7.22;;;5.35;;
33268;SDS011;19640;50.944;5.260;2023-06-14T02:12:40;6.68;;;5.70;;
33268;SDS011;19640;50.944;5.260;2023-06-14T02:15:06;12.45;;;5.60;;
33268;SDS011;19640;50.944;5.260;2023-06-14T02:17:32;11.85;;;5.80;;
33268;SDS011;19640;50.944;5.260;2023-06-14T02:19:58;6.18;;;5.57;;
33268;SDS011;19640;50.944;5.260;2023-06-14T02:22:24;9.18;;;5.47;;
33268;SDS011;19640;50.944;5.260;2023-06-14T02:24:49;11.48;;;5.32;;
33268;SDS011;19640;50.944;5.260;2023-06-14T02:27:15;6.32;;;5.72;;
33268;SDS011;19640;50.944;5.260;2023-06-14T02:29:42;8.15;;;5.35;;
33268;SDS011;19640;50.944;5.260;2023-06-14T02:32:07;9.23;;;5.07;;
33268;SDS011;19640;50.944;5.260;2023-06-14T02:34:34;5.88;;;5.07;;
33268;SDS011;19640;50.944;5.260;2023-06-14T02:37:00;6.60;;;5.95;;
33268;SDS011;19640;50.944;5.260;2023-06-14T02:39:28;6.43;;;5.82;;
33268;SDS011;19640;50.944;5.260;2023-06-14T02:41:54;11.93;;;6.45;;
33268;SDS011;19640;50.944;5.260;2023-06-14T02:44:24;6.57;;;5.88;;
33268;SDS011;19640;50.944;5.260;2023-06-14T02:46:54;6.93;;;6.22;;
33268;SDS011;19640;50.944;5.260;2023-06-14T02:49:21;7.50;;;6.80;;
33268;SDS011;19640;50.944;5.260;2023-06-14T02:51:47;20.23;;;6.70;;
33268;SDS011;19640;50.944;5.260;2023-06-14T02:54:13;7.05;;;6.35;;
33268;SDS011;19640;50.944;5.260;2023-06-14T02:56:39;6.75;;;6.05;;
33268;SDS011;19640;50.944;5.260;2023-06-14T02:59:05;6.25;;;5.72;;
33268;SDS011;19640;50.944;5.260;2023-06-14T03:01:32;6.82;;;6.10;;
33268;SDS011;19640;50.944;5.260;2023-06-14T03:04:05;6.78;;;6.13;;
33268;SDS011;19640;50.944;5.260;2023-06-14T03:06:32;6.85;;;6.15;;
33268;SDS011;19640;50.944;5.260;2023-06-14T03:08:58;11.43;;;6.03;;
33268;SDS011;19640;50.944;5.260;2023-06-14T03:11:28;6.80;;;5.88;;
33268;SDS011;19640;50.944;5.260;2023-06-14T03:13:53;11.40;;;6.55;;
33268;SDS011;19640;50.944;5.260;2023-06-14T03:16:20;11.90;;;6.25;;
33268;SDS011;19640;50.944;5.260;2023-06-14T03:18:48;11.82;;;5.80;;
33268;SDS011;19640;50.944;5.260;2023-06-14T03:21:18;6.93;;;6.28;;
33268;SDS011;19640;50.944;5.260;2023-06-14T03:23:45;10.13;;;6.57;;
33268;SDS011;19640;50.944;5.260;2023-06-14T03:26:11;7.38;;;6.63;;
33268;SDS011;19640;50.944;5.260;2023-06-14T03:28:46;11.02;;;7.05;;
33268;SDS011;19640;50.944;5.260;2023-06-14T03:31:13;7.43;;;6.35;;
33268;SDS011;19640;50.944;5.260;2023-06-14T03:33:40;9.13;;;6.32;;
33268;SDS011;19640;50.944;5.260;2023-06-14T03:36:05;9.93;;;6.35;;
33268;SDS011;19640;50.944;5.260;2023-06-14T03:38:34;7.75;;;6.28;;
33268;SDS011;19640;50.944;5.260;2023-06-14T03:41:00;7.68;;;6.13;;
33268;SDS011;19640;50.944;5.260;2023-06-14T03:43:26;12.65;;;7.45;;
33268;SDS011;19640;50.944;5.260;2023-06-14T03:45:53;12.38;;;6.80;;
33268;SDS011;19640;50.944;5.260;2023-06-14T03:48:19;7.55;;;6.72;;
33268;SDS011;19640;50.944;5.260;2023-06-14T03:50:44;7.97;;;6.53;;
33268;SDS011;19640;50.944;5.260;2023-06-14T03:53:10;8.27;;;6.18;;
33268;SDS011;19640;50.944;5.260;2023-06-14T03:55:36;6.90;;;6.05;;
33268;SDS011;19640;50.944;5.260;2023-06-14T03:58:03;8.32;;;6.60;;
33268;SDS011;19640;50.944;5.260;2023-06-14T04:00:28;7.05;;;6.38;;
33268;SDS011;19640;50.944;5.260;2023-06-14T04:02:54;14.10;;;6.38;;
33268;SDS011;19640;50.944;5.260;2023-06-14T04:05:20;10.02;;;6.90;;
33268;SDS011;19640;50.944;5.260;2023-06-14T04:07:46;8.10;;;6.00;;
33268;SDS011;19640;50.944;5.260;2023-06-14T04:10:13;7.15;;;6.25;;
33268;SDS011;19640;50.944;5.260;2023-06-14T04:12:40;7.70;;;6.55;;
33268;SDS011;19640;50.944;5.260;2023-06-14T04:15:06;9.63;;;6.20;;
33268;SDS011;19640;50.944;5.260;2023-06-14T04:17:33;6.43;;;5.78;;
33268;SDS011;19640;50.944;5.260;2023-06-14T04:19:59;11.32;;;6.47;;
33268;SDS011;19640;50.944;5.260;2023-06-14T04:22:25;8.68;;;6.65;;
33268;SDS011;19640;50.944;5.260;2023-06-14T04:24:55;7.25;;;6.30;;
33268;SDS011;19640;50.944;5.260;2023-06-14T04:27:25;7.80;;;6.95;;
33268;SDS011;19640;50.944;5.260;2023-06-14T04:29:52;7.13;;;6.45;;
33268;SDS011;19640;50.944;5.260;2023-06-14T04:32:23;8.40;;;6.47;;
33268;SDS011;19640;50.944;5.260;2023-06-14T04:34:55;11.60;;;6.70;;
33268;SDS011;19640;50.944;5.260;2023-06-14T04:37:21;6.75;;;5.95;;
33268;SDS011;19640;50.944;5.260;2023-06-14T04:39:48;7.45;;;5.97;;
33268;SDS011;19640;50.944;5.260;2023-06-14T04:42:14;8.13;;;6.28;;
33268;SDS011;19640;50.944;5.260;2023-06-14T04:44:42;7.05;;;6.43;;
33268;SDS011;19640;50.944;5.260;2023-06-14T04:47:11;7.00;;;6.20;;
33268;SDS011;19640;50.944;5.260;2023-06-14T04:49:38;7.78;;;5.72;;
33268;SDS011;19640;50.944;5.260;2023-06-14T04:52:05;8.82;;;5.50;;
33268;SDS011;19640;50.944;5.260;2023-06-14T04:54:30;8.52;;;6.53;;
33268;SDS011;19640;50.944;5.260;2023-06-14T04:56:59;7.70;;;6.22;;
33268;SDS011;19640;50.944;5.260;2023-06-14T04:59:24;7.47;;;6.00;;
33268;SDS011;19640;50.944;5.260;2023-06-14T05:01:50;11.95;;;6.40;;
33268;SDS011;19640;50.944;5.260;2023-06-14T05:04:17;10.73;;;6.35;;
33268;SDS011;19640;50.944;5.260;2023-06-14T05:06:44;7.45;;;6.07;;
33268;SDS011;19640;50.944;5.260;2023-06-14T05:09:11;8.65;;;6.40;;
33268;SDS011;19640;50.944;5.260;2023-06-14T05:11:37;10.13;;;6.25;;
33268;SDS011;19640;50.944;5.260;2023-06-14T05:14:03;10.55;;;6.43;;
33268;SDS011;19640;50.944;5.260;2023-06-14T05:16:28;8.35;;;5.93;;
33268;SDS011;19640;50.944;5.260;2023-06-14T05:18:54;7.20;;;6.07;;
33268;SDS011;19640;50.944;5.260;2023-06-14T05:21:20;6.60;;;6.00;;
33268;SDS011;19640;50.944;5.260;2023-06-14T05:23:46;7.60;;;5.80;;
33268;SDS011;19640;50.944;5.260;2023-06-14T05:26:12;6.72;;;6.13;;
33268;SDS011;19640;50.944;5.260;2023-06-14T05:28:37;10.48;;;6.50;;
33268;SDS011;19640;50.944;5.260;2023-06-14T05:31:03;7.32;;;5.65;;
33268;SDS011;19640;50.944;5.260;2023-06-14T05:33:29;12.88;;;6.25;;
33268;SDS011;19640;50.944;5.260;2023-06-14T05:35:54;8.20;;;6.13;;
33268;SDS011;19640;50.944;5.260;2023-06-14T05:38:20;8.18;;;5.90;;
33268;SDS011;19640;50.944;5.260;2023-06-14T05:40:47;7.50;;;5.63;;
33268;SDS011;19640;50.944;5.260;2023-06-14T05:43:12;6.70;;;5.85;;
33268;SDS011;19640;50.944;5.260;2023-06-14T05:45:38;10.13;;;5.85;;
33268;SDS011;19640;50.944;5.260;2023-06-14T05:48:04;7.50;;;5.97;;
33268;SDS011;19640;50.944;5.260;2023-06-14T05:50:30;21.33;;;6.60;;
33268;SDS011;19640;50.944;5.260;2023-06-14T05:52:55;8.27;;;6.07;;
33268;SDS011;19640;50.944;5.260;2023-06-14T05:55:21;7.10;;;6.30;;
33268;SDS011;19640;50.944;5.260;2023-06-14T05:57:47;8.07;;;6.38;;
33268;SDS011;19640;50.944;5.260;2023-06-14T06:00:13;11.13;;;6.15;;
33268;SDS011;19640;50.944;5.260;2023-06-14T06:02:43;9.98;;;6.20;;
33268;SDS011;19640;50.944;5.260;2023-06-14T06:05:10;8.07;;;5.75;;
33268;SDS011;19640;50.944;5.260;2023-06-14T06:07:36;7.50;;;6.07;;
33268;SDS011;19640;50.944;5.260;2023-06-14T06:10:03;7.53;;;5.28;;
33268;SDS011;19640;50.944;5.260;2023-06-14T06:12:30;7.35;;;5.50;;
33268;SDS011;19640;50.944;5.260;2023-06-14T06:14:56;5.90;;;5.40;;
33268;SDS011;19640;50.944;5.260;2023-06-14T06:17:22;9.52;;;5.45;;
33268;SDS011;19640;50.944;5.260;2023-06-14T06:19:47;7.97;;;5.65;;
33268;SDS011;19640;50.944;5.260;2023-06-14T06:22:13;5.70;;;4.93;;
33268;SDS011;19640;50.944;5.260;2023-06-14T06:24:39;10.68;;;5.57;;
33268;SDS011;19640;50.944;5.260;2023-06-14T06:27:05;6.93;;;5.13;;
33268;SDS011;19640;50.944;5.260;2023-06-14T06:29:33;8.43;;;4.80;;
33268;SDS011;19640;50.944;5.260;2023-06-14T06:32:00;6.18;;;5.57;;
33268;SDS011;19640;50.944;5.260;2023-06-14T06:34:26;7.40;;;5.07;;
33268;SDS011;19640;50.944;5.260;2023-06-14T06:36:52;8.48;;;4.28;;
33268;SDS011;19640;50.944;5.260;2023-06-14T06:39:17;7.15;;;4.70;;
33268;SDS011;19640;50.944;5.260;2023-06-14T06:41:43;6.70;;;4.30;;
33268;SDS011;19640;50.944;5.260;2023-06-14T06:44:09;8.85;;;3.83;;
33268;SDS011;19640;50.944;5.260;2023-06-14T06:46:38;6.43;;;4.30;;
33268;SDS011;19640;50.944;5.260;2023-06-14T06:49:07;8.15;;;4.53;;
33268;SDS011;19640;50.944;5.260;2023-06-14T06:51:37;5.85;;;4.60;;
33268;SDS011;19640;50.944;5.260;2023-06-14T06:54:07;5.10;;;4.30;;
33268;SDS011;19640;50.944;5.260;2023-06-14T06:56:33;5.80;;;4.55;;
33268;SDS011;19640;50.944;5.260;2023-06-14T06:58:59;6.65;;;3.80;;
33268;SDS011;19640;50.944;5.260;2023-06-14T07:01:25;7.95;;;3.70;;
33268;SDS011;19640;50.944;5.260;2023-06-14T07:03:51;6.20;;;4.20;;
33268;SDS011;19640;50.944;5.260;2023-06-14T07:06:17;3.97;;;3.55;;
33268;SDS011;19640;50.944;5.260;2023-06-14T07:08:44;9.02;;;4.20;;
33268;SDS011;19640;50.944;5.260;2023-06-14T07:11:09;6.32;;;4.00;;
33268;SDS011;19640;50.944;5.260;2023-06-14T07:13:35;5.63;;;4.10;;
33268;SDS011;19640;50.944;5.260;2023-06-14T07:16:01;4.30;;;3.92;;
33268;SDS011;19640;50.944;5.260;2023-06-14T07:18:27;11.23;;;3.80;;
33268;SDS011;19640;50.944;5.260;2023-06-14T07:20:54;5.28;;;3.72;;
33268;SDS011;19640;50.944;5.260;2023-06-14T07:23:20;5.50;;;3.72;;
33268;SDS011;19640;50.944;5.260;2023-06-14T07:25:46;5.22;;;4.40;;
33268;SDS011;19640;50.944;5.260;2023-06-14T07:28:11;12.15;;;4.25;;
33268;SDS011;19640;50.944;5.260;2023-06-14T07:30:37;7.20;;;3.40;;
33268;SDS011;19640;50.944;5.260;2023-06-14T07:33:03;4.90;;;3.80;;
33268;SDS011;19640;50.944;5.260;2023-06-14T07:35:28;4.88;;;3.30;;
33268;SDS011;19640;50.944;5.260;2023-06-14T07:37:54;5.47;;;3.83;;
33268;SDS011;19640;50.944;5.260;2023-06-14T07:40:20;7.05;;;4.07;;
33268;SDS011;19640;50.944;5.260;2023-06-14T07:42:46;8.32;;;4.85;;
33268;SDS011;19640;50.944;5.260;2023-06-14T07:45:14;12.63;;;3.92;;
33268;SDS011;19640;50.944;5.260;2023-06-14T07:47:40;6.55;;;3.85;;
33268;SDS011;19640;50.944;5.260;2023-06-14T07:50:06;6.85;;;3.60;;
33268;SDS011;19640;50.944;5.260;2023-06-14T07:52:32;4.10;;;3.70;;
33268;SDS011;19640;50.944;5.260;2023-06-14T07:54:57;5.85;;;3.80;;
33268;SDS011;19640;50.944;5.260;2023-06-14T07:57:23;5.60;;;3.78;;
33268;SDS011;19640;50.944;5.260;2023-06-14T07:59:49;4.63;;;3.90;;
33268;SDS011;19640;50.944;5.260;2023-06-14T08:02:15;5.47;;;3.63;;
33268;SDS011;19640;50.944;5.260;2023-06-14T08:04:41;5.40;;;3.13;;
33268;SDS011;19640;50.944;5.260;2023-06-14T08:07:07;7.00;;;3.47;;
33268;SDS011;19640;50.944;5.260;2023-06-14T08:09:33;4.38;;;3.25;;
33268;SDS011;19640;50.944;5.260;2023-06-14T08:11:58;5.22;;;3.38;;
33268;SDS011;19640;50.944;5.260;2023-06-14T08:14:25;3.97;;;3.67;;
33268;SDS011;19640;50.944;5.260;2023-06-14T08:16:50;4.15;;;3.20;;
33268;SDS011;19640;50.944;5.260;2023-06-14T08:19:16;8.40;;;3.50;;
33268;SDS011;19640;50.944;5.260;2023-06-14T08:21:43;5.53;;;3.58;;
33268;SDS011;19640;50.944;5.260;2023-06-14T08:24:08;3.85;;;3.13;;
33268;SDS011;19640;50.944;5.260;2023-06-14T08:26:37;4.43;;;3.50;;
33268;SDS011;19640;50.944;5.260;2023-06-14T08:29:04;6.95;;;3.92;;
33268;SDS011;19640;50.944;5.260;2023-06-14T08:31:32;7.97;;;3.15;;
33268;SDS011;19640;50.944;5.260;2023-06-14T08:33:58;7.25;;;3.40;;
33268;SDS011;19640;50.944;5.260;2023-06-14T08:36:24;6.53;;;3.65;;
33268;SDS011;19640;50.944;5.260;2023-06-14T08:38:50;5.10;;;3.58;;
33268;SDS011;19640;50.944;5.260;2023-06-14T08:41:20;3.75;;;3.35;;
33268;SDS011;19640;50.944;5.260;2023-06-14T08:43:50;6.50;;;3.53;;
33268;SDS011;19640;50.944;5.260;2023-06-14T08:46:17;3.50;;;3.05;;
33268;SDS011;19640;50.944;5.260;2023-06-14T08:48:50;4.07;;;3.47;;
33268;SDS011;19640;50.944;5.260;2023-06-14T08:51:20;5.10;;;3.05;;
33268;SDS011;19640;50.944;5.260;2023-06-14T08:53:52;4.90;;;3.20;;
33268;SDS011;19640;50.944;5.260;2023-06-14T08:56:22;3.65;;;3.08;;
33268;SDS011;19640;50.944;5.260;2023-06-14T08:58:52;5.18;;;3.63;;
33268;SDS011;19640;50.944;5.260;2023-06-14T09:01:19;5.60;;;3.10;;
33268;SDS011;19640;50.944;5.260;2023-06-14T09:03:47;6.13;;;2.92;;
33268;SDS011;19640;50.944;5.260;2023-06-14T09:06:14;3.50;;;3.17;;
33268;SDS011;19640;50.944;5.260;2023-06-14T09:08:41;6.32;;;2.65;;
33268;SDS011;19640;50.944;5.260;2023-06-14T09:11:10;3.30;;;2.67;;
33268;SDS011;19640;50.944;5.260;2023-06-14T09:13:38;4.22;;;2.50;;
33268;SDS011;19640;50.944;5.260;2023-06-14T09:16:05;4.65;;;2.63;;
33268;SDS011;19640;50.944;5.260;2023-06-14T09:18:34;3.97;;;2.28;;
33268;SDS011;19640;50.944;5.260;2023-06-14T09:21:02;5.30;;;2.67;;
33268;SDS011;19640;50.944;5.260;2023-06-14T09:23:27;6.53;;;2.65;;
33268;SDS011;19640;50.944;5.260;2023-06-14T09:25:53;4.13;;;2.58;;
33268;SDS011;19640;50.944;5.260;2023-06-14T09:28:19;3.83;;;2.75;;
33268;SDS011;19640;50.944;5.260;2023-06-14T09:30:47;3.05;;;2.20;;
33268;SDS011;19640;50.944;5.260;2023-06-14T09:33:16;3.88;;;2.47;;
33268;SDS011;19640;50.944;5.260;2023-06-14T09:35:45;7.03;;;2.85;;
33268;SDS011;19640;50.944;5.260;2023-06-14T09:38:11;3.05;;;2.75;;
33268;SDS011;19640;50.944;5.260;2023-06-14T09:40:37;5.13;;;2.47;;
33268;SDS011;19640;50.944;5.260;2023-06-14T09:43:06;4.00;;;2.67;;
33268;SDS011;19640;50.944;5.260;2023-06-14T09:45:35;8.43;;;2.15;;
33268;SDS011;19640;50.944;5.260;2023-06-14T09:48:01;4.25;;;2.10;;
33268;SDS011;19640;50.944;5.260;2023-06-14T09:50:27;6.20;;;2.28;;
33268;SDS011;19640;50.944;5.260;2023-06-14T09:52:53;5.45;;;2.13;;
33268;SDS011;19640;50.944;5.260;2023-06-14T09:55:27;8.80;;;2.42;;
33268;SDS011;19640;50.944;5.260;2023-06-14T09:57:55;4.53;;;2.03;;
33268;SDS011;19640;50.944;5.260;2023-06-14T10:00:22;3.00;;;2.28;;
33268;SDS011;19640;50.944;5.260;2023-06-14T10:02:51;2.85;;;2.20;;
33268;SDS011;19640;50.944;5.260;2023-06-14T10:05:21;5.72;;;2.13;;
33268;SDS011;19640;50.944;5.260;2023-06-14T10:07:51;3.10;;;2.00;;
33268;SDS011;19640;50.944;5.260;2023-06-14T10:10:21;5.28;;;1.98;;
33268;SDS011;19640;50.944;5.260;2023-06-14T10:12:47;3.63;;;2.03;;
33268;SDS011;19640;50.944;5.260;2023-06-14T10:18:09;3.33;;;2.15;;
33268;SDS011;19640;50.944;5.260;2023-06-14T10:23:42;2.38;;;1.92;;
33268;SDS011;19640;50.944;5.260;2023-06-14T10:26:17;4.85;;;2.08;;
33268;SDS011;19640;50.944;5.260;2023-06-14T10:28:55;2.97;;;2.40;;
33268;SDS011;19640;50.944;5.260;2023-06-14T10:34:29;4.20;;;2.00;;
33268;SDS011;19640;50.944;5.260;2023-06-14T10:39:43;3.00;;;1.95;;
33268;SDS011;19640;50.944;5.260;2023-06-14T10:42:12;2.50;;;2.30;;
33268;SDS011;19640;50.944;5.260;2023-06-14T10:44:45;3.55;;;2.03;;
33268;SDS011;19640;50.944;5.260;2023-06-14T10:47:33;4.93;;;1.83;;
33268;SDS011;19640;50.944;5.260;2023-06-14T10:52:33;3.28;;;1.83;;
33268;SDS011;19640;50.944;5.260;2023-06-14T10:55:04;2.67;;;1.90;;
33268;SDS011;19640;50.944;5.260;2023-06-14T10:57:36;5.07;;;1.83;;
33268;SDS011;19640;50.944;5.260;2023-06-14T11:00:04;4.88;;;1.60;;
33268;SDS011;19640;50.944;5.260;2023-06-14T11:05:25;3.70;;;1.60;;
33268;SDS011;19640;50.944;5.260;2023-06-14T11:10:41;1.65;;;1.52;;
33268;SDS011;19640;50.944;5.260;2023-06-14T11:13:10;2.53;;;1.73;;
33268;SDS011;19640;50.944;5.260;2023-06-14T11:15:36;1.63;;;1.27;;
33268;SDS011;19640;50.944;5.260;2023-06-14T11:18:04;1.55;;;1.40;;
33268;SDS011;19640;50.944;5.260;2023-06-14T11:20:31;2.80;;;1.40;;
33268;SDS011;19640;50.944;5.260;2023-06-14T11:22:58;1.75;;;1.58;;
33268;SDS011;19640;50.944;5.260;2023-06-14T11:25:24;2.92;;;1.00;;
33268;SDS011;19640;50.944;5.260;2023-06-14T11:27:51;2.17;;;1.13;;
33268;SDS011;19640;50.944;5.260;2023-06-14T11:30:17;1.23;;;1.10;;
33268;SDS011;19640;50.944;5.260;2023-06-14T11:32:47;5.45;;;0.82;;
33268;SDS011;19640;50.944;5.260;2023-06-14T11:35:13;1.48;;;1.00;;
33268;SDS011;19640;50.944;5.260;2023-06-14T11:37:40;3.65;;;1.10;;
33268;SDS011;19640;50.944;5.260;2023-06-14T11:40:07;5.70;;;1.10;;
33268;SDS011;19640;50.944;5.260;2023-06-14T11:42:35;1.10;;;0.80;;
33268;SDS011;19640;50.944;5.260;2023-06-14T11:45:01;1.08;;;0.98;;
33268;SDS011;19640;50.944;5.260;2023-06-14T11:47:40;0.95;;;0.75;;
33268;SDS011;19640;50.944;5.260;2023-06-14T11:50:07;1.58;;;0.80;;
33268;SDS011;19640;50.944;5.260;2023-06-14T11:52:34;5.03;;;0.80;;
33268;SDS011;19640;50.944;5.260;2023-06-14T11:55:01;1.42;;;0.82;;
33268;SDS011;19640;50.944;5.260;2023-06-14T11:57:30;3.17;;;0.77;;
33268;SDS011;19640;50.944;5.260;2023-06-14T11:59:59;1.50;;;1.05;;
33268;SDS011;19640;50.944;5.260;2023-06-14T12:02:25;5.45;;;0.90;;
33268;SDS011;19640;50.944;5.260;2023-06-14T12:04:52;2.85;;;1.48;;
33268;SDS011;19640;50.944;5.260;2023-06-14T12:07:19;5.25;;;0.90;;
33268;SDS011;19640;50.944;5.260;2023-06-14T12:12:20;1.27;;;1.05;;
33268;SDS011;19640;50.944;5.260;2023-06-14T12:14:47;1.90;;;1.00;;
33268;SDS011;19640;50.944;5.260;2023-06-14T12:17:13;1.48;;;0.82;;
33268;SDS011;19640;50.944;5.260;2023-06-14T12:19:42;2.95;;;1.15;;
33268;SDS011;19640;50.944;5.260;2023-06-14T12:22:09;1.75;;;1.30;;
33268;SDS011;19640;50.944;5.260;2023-06-14T12:24:35;2.15;;;1.00;;
33268;SDS011;19640;50.944;5.260;2023-06-14T12:27:01;1.85;;;0.70;;
33268;SDS011;19640;50.944;5.260;2023-06-14T12:29:28;1.50;;;1.10;;
33268;SDS011;19640;50.944;5.260;2023-06-14T12:31:54;3.53;;;1.10;;
33268;SDS011;19640;50.944;5.260;2023-06-14T12:34:25;2.90;;;0.82;;
33268;SDS011;19640;50.944;5.260;2023-06-14T12:36:52;1.90;;;0.98;;
33268;SDS011;19640;50.944;5.260;2023-06-14T12:39:18;1.85;;;0.90;;
33268;SDS011;19640;50.944;5.260;2023-06-14T12:41:44;4.03;;;1.35;;
33268;SDS011;19640;50.944;5.260;2023-06-14T12:44:11;4.00;;;1.00;;
33268;SDS011;19640;50.944;5.260;2023-06-14T12:46:37;2.63;;;1.10;;
33268;SDS011;19640;50.944;5.260;2023-06-14T12:49:04;3.55;;;1.45;;
33268;SDS011;19640;50.944;5.260;2023-06-14T12:51:31;3.22;;;1.17;;
33268;SDS011;19640;50.944;5.260;2023-06-14T12:53:57;4.25;;;1.20;;
33268;SDS011;19640;50.944;5.260;2023-06-14T12:56:23;8.65;;;1.10;;
33268;SDS011;19640;50.944;5.260;2023-06-14T12:58:49;2.42;;;1.17;;
33268;SDS011;19640;50.944;5.260;2023-06-14T13:01:14;2.30;;;1.05;;
33268;SDS011;19640;50.944;5.260;2023-06-14T13:03:40;2.47;;;1.08;;
33268;SDS011;19640;50.944;5.260;2023-06-14T13:06:05;4.18;;;1.25;;
33268;SDS011;19640;50.944;5.260;2023-06-14T13:08:31;3.63;;;1.15;;
33268;SDS011;19640;50.944;5.260;2023-06-14T13:10:57;6.32;;;1.17;;
33268;SDS011;19640;50.944;5.260;2023-06-14T13:13:23;4.55;;;0.95;;
33268;SDS011;19640;50.944;5.260;2023-06-14T13:15:49;1.55;;;1.00;;
33268;SDS011;19640;50.944;5.260;2023-06-14T13:18:15;3.08;;;1.02;;
33268;SDS011;19640;50.944;5.260;2023-06-14T13:20:41;2.45;;;0.90;;
33268;SDS011;19640;50.944;5.260;2023-06-14T13:23:08;9.18;;;1.38;;
33268;SDS011;19640;50.944;5.260;2023-06-14T13:25:35;2.50;;;1.02;;
33268;SDS011;19640;50.944;5.260;2023-06-14T13:28:03;2.78;;;0.90;;
33268;SDS011;19640;50.944;5.260;2023-06-14T13:30:30;3.08;;;0.93;;
33268;SDS011;19640;50.944;5.260;2023-06-14T13:32:56;1.05;;;0.90;;
33268;SDS011;19640;50.944;5.260;2023-06-14T13:35:23;3.13;;;1.10;;
33268;SDS011;19640;50.944;5.260;2023-06-14T13:37:49;4.97;;;1.20;;
33268;SDS011;19640;50.944;5.260;2023-06-14T13:40:15;5.57;;;1.00;;
33268;SDS011;19640;50.944;5.260;2023-06-14T13:42:41;1.60;;;1.10;;
33268;SDS011;19640;50.944;5.260;2023-06-14T13:45:07;1.75;;;1.00;;
33268;SDS011;19640;50.944;5.260;2023-06-14T13:47:33;1.35;;;0.93;;
33268;SDS011;19640;50.944;5.260;2023-06-14T13:49:59;1.10;;;1.00;;
33268;SDS011;19640;50.944;5.260;2023-06-14T13:52:24;3.05;;;1.08;;
33268;SDS011;19640;50.944;5.260;2023-06-14T13:54:51;2.70;;;1.00;;
33268;SDS011;19640;50.944;5.260;2023-06-14T13:57:17;1.92;;;1.20;;
33268;SDS011;19640;50.944;5.260;2023-06-14T13:59:43;2.03;;;1.00;;
33268;SDS011;19640;50.944;5.260;2023-06-14T14:02:09;1.25;;;0.80;;
33268;SDS011;19640;50.944;5.260;2023-06-14T14:04:36;2.13;;;1.00;;
33268;SDS011;19640;50.944;5.260;2023-06-14T14:07:03;6.25;;;1.10;;
33268;SDS011;19640;50.944;5.260;2023-06-14T14:09:29;2.35;;;0.90;;
33268;SDS011;19640;50.944;5.260;2023-06-14T14:11:55;3.97;;;1.15;;
33268;SDS011;19640;50.944;5.260;2023-06-14T14:14:21;7.55;;;0.90;;
33268;SDS011;19640;50.944;5.260;2023-06-14T14:16:48;3.42;;;1.23;;
33268;SDS011;19640;50.944;5.260;2023-06-14T14:19:16;3.38;;;1.00;;
33268;SDS011;19640;50.944;5.260;2023-06-14T14:21:44;4.40;;;1.15;;
33268;SDS011;19640;50.944;5.260;2023-06-14T14:24:10;2.00;;;1.10;;
33268;SDS011;19640;50.944;5.260;2023-06-14T14:26:36;1.20;;;1.00;;
33268;SDS011;19640;50.944;5.260;2023-06-14T14:29:02;3.67;;;1.00;;
33268;SDS011;19640;50.944;5.260;2023-06-14T14:31:28;2.00;;;0.93;;
33268;SDS011;19640;50.944;5.260;2023-06-14T14:33:53;5.07;;;1.02;;
33268;SDS011;19640;50.944;5.260;2023-06-14T14:36:19;2.40;;;1.00;;
33268;SDS011;19640;50.944;5.260;2023-06-14T14:38:45;1.52;;;1.10;;
33268;SDS011;19640;50.944;5.260;2023-06-14T14:41:12;1.00;;;0.90;;
33268;SDS011;19640;50.944;5.260;2023-06-14T14:43:38;3.40;;;1.02;;
33268;SDS011;19640;50.944;5.260;2023-06-14T14:46:04;5.47;;;1.20;;
33268;SDS011;19640;50.944;5.260;2023-06-14T14:48:30;2.00;;;0.95;;
33268;SDS011;19640;50.944;5.260;2023-06-14T14:50:55;3.05;;;0.90;;
33268;SDS011;19640;50.944;5.260;2023-06-14T14:53:21;1.98;;;1.30;;
33268;SDS011;19640;50.944;5.260;2023-06-14T14:55:47;2.05;;;0.77;;
33268;SDS011;19640;50.944;5.260;2023-06-14T14:58:13;1.35;;;1.02;;
33268;SDS011;19640;50.944;5.260;2023-06-14T15:00:43;1.05;;;0.80;;
33268;SDS011;19640;50.944;5.260;2023-06-14T15:03:12;1.35;;;0.90;;
33268;SDS011;19640;50.944;5.260;2023-06-14T15:05:38;3.67;;;0.80;;
33268;SDS011;19640;50.944;5.260;2023-06-14T15:08:04;0.70;;;0.70;;
33268;SDS011;19640;50.944;5.260;2023-06-14T15:13:01;0.70;;;0.70;;
33268;SDS011;19640;50.944;5.260;2023-06-14T15:15:26;3.75;;;0.90;;